Milan Linate, Italy

11:38 AM CET on February 11, 2016 (GMT +0100)
ILOMBARD77 | | Change Station
CLOSE
Current Station
Personal Weather Station
Location: San Giuliano Milanese, Lombardia
Elevation: 315 ft
Nearby Weather Stations

Elev 315 ft 45.39 °N, 9.28 °E | Updated 9 minutes ago

Clear
Clear
43.9 °F
Feels Like 44 °F
N
1.6
Wind Variable Wind from South
Gusts 1.6 mph

Today
High -- | Low -- °F
--% Chance of Precip.
Yesterday
High -- | Low -- °F
Precip. -- in
Pressure 29.80 in
Visibility -9999.0 miles
Clouds
Windchill 44 °F
Dew Point 29 °F
Humidity 55%
Rainfall 0.00 in
Snow Depth Not available.
7:31 AM 5:43 PM
Waxing Crescent, 11% visible
METAR LIML 111020Z 09003KT 020V180 CAVOK 08/M03 Q1009 NOSIG
Pressure 29.80 in
Visibility -9999.0 miles
Clouds
Windchill 44 °F
Dew Point 29 °F
Humidity 55%
Rainfall 0.00 in
Snow Depth Not available.
7:31 AM 5:43 PM
Waxing Crescent, 11% visible
METAR LIML 111020Z 09003KT 020V180 CAVOK 08/M03 Q1009 NOSIG

10-Day Weather Forecast

Almanac

Astronomy

Feb. 11, 2016 Rise Set
Actual Time
Civil Twilight
Nautical Twilight
Astronomical Twilight
Moon
Length of Visible Light
Length of Day
Tomorrow will be .
, % of the Moon is Illuminated

Today's Extremes

Country Highs Country Lows

Community

WunderPhotos

Upload Photos

1,892,030 photos uploaded!

WunderBlog® & News

Nearby

Air Quality

  Air Quality AQ Index Pollutant
Not available.

Snow Depth

Station Depth Elevation

Earthquake Activity

City Distance Mag. Time & Date
Minimum magnitude displayed is 2.5.

Coastal Water Temperatures

Place Temperature

Stations

Nearby Weather Stations

Station Location Temp. Windchill Dew Point Humidity Wind Precip. Elev Updated Type